createdAt,value
2023-03-19T00:58:22.256Z,25.90
2023-03-19T01:00:54.645Z,21.70
2023-03-19T01:03:23.618Z,26.80
2023-03-19T01:05:52.098Z,24.90
2023-03-19T01:08:20.726Z,29.70
2023-03-19T01:10:49.053Z,25.00
2023-03-19T01:13:17.742Z,23.50
2023-03-19T01:15:46.938Z,23.20
2023-03-19T01:18:15.737Z,26.00
2023-03-19T01:20:47.187Z,23.20
2023-03-19T01:23:16.091Z,22.40
2023-03-19T01:25:44.860Z,27.60
2023-03-19T01:28:13.369Z,19.80
2023-03-19T01:30:43.153Z,20.70
2023-03-19T01:33:34.385Z,25.20
2023-03-19T01:36:09.241Z,25.60
2023-03-19T01:38:56.614Z,26.30
2023-03-19T01:41:26.014Z,34.20
2023-03-19T01:43:57.074Z,25.70
2023-03-19T01:46:38.090Z,28.60
2023-03-19T01:49:35.502Z,23.10
2023-03-19T01:52:14.758Z,33.00
2023-03-19T01:55:17.618Z,38.50
2023-03-19T01:57:51.758Z,34.40
2023-03-19T02:00:39.352Z,25.60
2023-03-19T02:03:08.494Z,30.30
2023-03-19T02:06:02.618Z,23.90
2023-03-19T02:08:31.355Z,29.60
2023-03-19T02:11:00.528Z,26.90
2023-03-19T02:13:29.137Z,29.70
2023-03-19T02:15:57.518Z,25.60
2023-03-19T02:18:27.895Z,24.50
2023-03-19T02:21:03.311Z,25.60
2023-03-19T02:23:44.113Z,21.50
2023-03-19T02:26:16.756Z,25.80
2023-03-19T02:28:47.107Z,24.60
2023-03-19T02:31:18.656Z,31.90
2023-03-19T02:34:06.308Z,26.30
2023-03-19T02:36:47.401Z,24.20
2023-03-19T02:39:41.767Z,23.80
2023-03-19T02:42:11.982Z,23.60
2023-03-19T02:44:40.502Z,23.60
2023-03-19T02:47:09.865Z,19.30
2023-03-19T02:49:38.756Z,26.50
2023-03-19T02:52:07.775Z,26.60
2023-03-19T02:54:35.988Z,24.50
2023-03-19T02:57:04.643Z,26.60
2023-03-19T02:59:39.229Z,21.20
2023-03-19T03:02:08.763Z,22.70
2023-03-19T03:04:37.551Z,24.70
2023-03-19T03:07:06.318Z,29.40
2023-03-19T03:09:35.911Z,27.30
2023-03-19T03:12:05.038Z,23.40
2023-03-19T03:14:33.855Z,32.80
2023-03-19T03:17:02.413Z,24.00
2023-03-19T03:19:34.659Z,23.40
2023-03-19T03:22:05.905Z,26.40
2023-03-19T03:24:34.538Z,25.50
2023-03-19T03:27:06.800Z,25.60
2023-03-19T03:29:36.976Z,29.60
2023-03-19T03:32:07.304Z,22.70
2023-03-19T03:34:36.599Z,22.60
2023-03-19T03:37:04.833Z,30.80
2023-03-19T03:39:33.276Z,26.70
2023-03-19T03:42:01.754Z,24.30
2023-03-19T03:44:31.678Z,24.30
2023-03-19T03:47:05.050Z,25.60
2023-03-19T03:49:33.728Z,23.10
2023-03-19T03:52:02.375Z,24.50
2023-03-19T03:57:03.480Z,30.20
2023-03-19T03:59:38.124Z,24.30
2023-03-19T04:02:06.972Z,23.90
2023-03-19T04:04:36.387Z,25.60
2023-03-19T04:07:05.020Z,25.80
2023-03-19T04:09:46.809Z,24.20
2023-03-19T04:12:15.140Z,26.60
2023-03-19T04:14:49.821Z,23.30
2023-03-19T04:17:18.582Z,31.10
2023-03-19T04:19:47.880Z,26.60
2023-03-19T04:22:19.008Z,28.60
2023-03-19T04:24:48.704Z,27.10
2023-03-19T04:27:17.192Z,28.10
2023-03-19T04:29:45.998Z,28.60
2023-03-19T04:32:15.534Z,24.50
2023-03-19T04:34:47.158Z,27.50
2023-03-19T04:37:16.123Z,23.80
2023-03-19T04:39:48.186Z,22.70
2023-03-19T04:42:17.489Z,26.70
2023-03-19T04:44:51.600Z,28.90
2023-03-19T04:47:24.217Z,29.90
2023-03-19T04:50:01.465Z,25.90
2023-03-19T04:52:31.996Z,28.70
2023-03-19T04:55:00.678Z,34.80
2023-03-19T04:57:30.176Z,28.50
2023-03-19T04:59:59.316Z,37.70
2023-03-19T05:02:28.277Z,34.80
2023-03-19T05:04:56.427Z,30.40
2023-03-19T05:07:25.038Z,30.90
2023-03-19T05:09:54.631Z,34.10
2023-03-19T05:12:27.109Z,33.50
2023-03-19T05:14:58.076Z,36.90
2023-03-19T05:17:37.432Z,43.60
2023-03-19T05:20:25.739Z,32.20
2023-03-19T05:22:58.594Z,34.00
2023-03-19T05:25:36.154Z,37.70
2023-03-19T05:28:05.499Z,37.20
2023-03-19T05:30:34.924Z,36.20
2023-03-19T05:33:23.151Z,35.70
2023-03-19T05:35:53.200Z,46.10
2023-03-19T05:38:29.310Z,31.30
2023-03-19T05:41:05.353Z,31.40
2023-03-19T05:43:41.856Z,43.00
2023-03-19T05:46:14.213Z,36.30
2023-03-19T05:48:42.423Z,38.60
2023-03-19T05:51:16.247Z,39.40
2023-03-19T05:53:47.041Z,32.90
2023-03-19T06:14:41.631Z,55.40
2023-03-19T07:43:37.527Z,59.30
2023-03-19T10:20:36.644Z,46.30
2023-03-19T13:05:23.320Z,34.60
2023-03-19T13:07:58.734Z,42.60
2023-03-19T13:10:27.184Z,32.90
2023-03-19T13:12:57.313Z,39.30
2023-03-19T13:15:27.938Z,35.10
2023-03-19T13:18:24.997Z,37.90
2023-03-19T13:21:02.686Z,33.90
2023-03-19T13:23:34.236Z,39.30
2023-03-19T13:26:10.008Z,33.60
2023-03-19T13:28:53.373Z,34.50
2023-03-19T13:31:24.308Z,30.60
2023-03-19T13:34:20.290Z,29.20
2023-03-19T13:37:12.580Z,29.70
2023-03-19T13:39:42.362Z,28.50
2023-03-19T13:42:20.248Z,42.20
2023-03-19T13:44:55.303Z,33.60
2023-03-19T13:47:26.804Z,35.40
2023-03-19T13:50:18.283Z,48.80
2023-03-19T13:52:50.580Z,31.70
2023-03-19T13:55:24.694Z,31.50
2023-03-19T13:58:12.493Z,29.40
2023-03-19T14:00:45.261Z,40.70
2023-03-19T14:03:23.998Z,38.50
2023-03-19T14:05:56.597Z,44.70
2023-03-19T14:08:30.141Z,32.50
2023-03-19T14:10:59.988Z,42.70
2023-03-19T14:13:34.102Z,35.50
2023-03-19T14:16:17.010Z,35.80
2023-03-19T14:18:45.866Z,49.70
2023-03-19T14:21:22.783Z,45.40
2023-03-19T14:23:55.024Z,60.40
2023-03-19T14:26:24.521Z,43.50
2023-03-19T14:29:05.383Z,45.20
2023-03-19T14:31:58.395Z,30.80
2023-03-19T14:34:35.019Z,42.90
2023-03-19T14:37:25.254Z,34.30
2023-03-19T14:40:04.737Z,53.90
2023-03-19T14:42:50.481Z,41.70
2023-03-19T14:45:47.105Z,42.20
2023-03-19T14:48:36.146Z,46.30
2023-03-19T14:51:13.436Z,48.30
2023-03-19T14:53:46.617Z,46.70
2023-03-19T14:56:23.392Z,53.40
2023-03-19T14:58:54.093Z,64.00
2023-03-19T15:01:30.017Z,77.80
2023-03-19T15:04:04.117Z,69.60
2023-03-19T15:06:35.593Z,87.90
2023-03-19T15:09:27.290Z,75.10
2023-03-19T15:12:16.632Z,68.60
2023-03-19T15:14:54.110Z,76.30
2023-03-19T15:17:24.868Z,69.50
2023-03-19T15:19:53.647Z,78.90
2023-03-19T15:22:31.434Z,79.10
2023-03-19T15:25:11.399Z,64.90
2023-03-19T15:27:40.103Z,67.10
2023-03-19T15:30:29.407Z,76.00
2023-03-19T15:33:12.015Z,82.20
2023-03-19T15:35:46.516Z,78.30
2023-03-19T15:38:16.511Z,73.10
2023-03-19T15:40:44.874Z,73.50
2023-03-19T15:43:13.497Z,63.90
2023-03-19T15:45:46.663Z,75.10
2023-03-19T15:48:26.314Z,65.10
2023-03-19T15:50:58.120Z,77.70
2023-03-19T15:53:28.537Z,78.20
2023-03-19T15:55:58.101Z,74.60
2023-03-19T15:58:28.714Z,69.40
2023-03-19T16:04:02.136Z,77.20
2023-03-19T16:06:32.243Z,70.90
2023-03-19T16:09:25.098Z,79.00
2023-03-19T16:11:56.103Z,82.40
2023-03-19T16:14:39.874Z,85.00
2023-03-19T16:17:14.344Z,73.60
2023-03-19T16:19:58.756Z,76.80
2023-03-19T16:22:32.621Z,66.10
2023-03-19T16:25:02.784Z,77.60
2023-03-19T16:27:36.171Z,79.60
2023-03-19T16:30:26.275Z,95.70
2023-03-19T16:33:03.054Z,80.60
2023-03-19T16:35:35.039Z,81.90
2023-03-19T16:45:27.275Z,94.40
2023-03-19T16:48:01.021Z,75.60
2023-03-19T16:50:35.660Z,79.90
2023-03-19T16:53:05.779Z,89.50
2023-03-19T16:55:36.724Z,87.30
2023-03-19T16:58:17.126Z,81.90
2023-03-19T17:00:46.147Z,78.30
2023-03-19T17:03:17.682Z,89.60
2023-03-19T17:05:46.775Z,83.70
2023-03-19T17:08:17.766Z,91.10
2023-03-19T17:10:49.561Z,86.30
2023-03-19T17:13:20.740Z,87.50
2023-03-19T17:15:50.525Z,82.30
2023-03-19T17:18:24.501Z,75.10
2023-03-19T17:21:00.025Z,81.00
2023-03-19T17:23:30.559Z,95.70
2023-03-19T17:25:59.691Z,93.60
2023-03-19T17:28:32.679Z,93.60
2023-03-19T17:33:32.854Z,81.20
2023-03-19T17:36:01.303Z,82.20
2023-03-19T17:38:34.070Z,89.10
2023-03-19T17:41:05.726Z,86.10
2023-03-19T17:43:34.208Z,84.20
2023-03-19T17:46:02.961Z,73.60
2023-03-19T17:48:31.296Z,99.40
2023-03-19T17:51:02.380Z,95.10
2023-03-19T17:53:30.898Z,86.80
2023-03-19T17:56:00.578Z,91.30
2023-03-19T17:58:32.826Z,85.10
2023-03-19T18:01:03.467Z,80.80
2023-03-19T18:03:36.648Z,79.70
2023-03-19T18:08:38.556Z,95.40
2023-03-19T18:11:06.862Z,98.70
2023-03-19T18:13:38.093Z,88.30
2023-03-19T18:16:12.584Z,88.20
2023-03-19T18:18:41.315Z,91.30
2023-03-19T18:21:14.080Z,84.60
2023-03-19T18:23:43.810Z,90.60
2023-03-19T18:26:12.037Z,94.30
2023-03-19T18:28:40.425Z,90.30
2023-03-19T18:31:26.699Z,87.80
2023-03-19T18:33:59.840Z,89.60
2023-03-19T18:36:31.732Z,83.60
2023-03-19T18:39:00.395Z,94.10
2023-03-19T18:41:29.225Z,82.50
2023-03-19T18:44:07.393Z,85.00
2023-03-19T18:46:36.783Z,83.10
2023-03-19T18:49:19.725Z,80.50
2023-03-19T18:52:01.762Z,83.60
2023-03-19T18:54:31.697Z,92.40
2023-03-19T18:57:03.579Z,84.40
2023-03-19T18:59:33.314Z,85.40
2023-03-19T19:02:21.258Z,87.60
2023-03-19T19:04:49.729Z,102.60
2023-03-19T19:07:18.014Z,99.30
2023-03-19T19:09:46.765Z,89.10
2023-03-19T19:12:18.346Z,89.40
2023-03-19T19:14:47.214Z,94.00
2023-03-19T19:17:21.529Z,90.40
2023-03-19T19:19:51.636Z,75.30
2023-03-19T19:22:20.447Z,71.00
2023-03-19T19:24:49.002Z,77.80
2023-03-19T19:27:21.012Z,83.10
2023-03-19T19:29:51.404Z,64.80
2023-03-19T19:32:26.679Z,63.20
2023-03-19T19:34:55.233Z,64.40
2023-03-19T19:37:29.358Z,75.20
2023-03-19T19:39:58.328Z,98.00
2023-03-19T19:42:26.733Z,74.80
2023-03-19T19:44:56.455Z,72.00
2023-03-19T19:47:25.076Z,55.00
2023-03-19T19:49:58.420Z,67.20
2023-03-19T19:52:31.690Z,66.00
2023-03-19T19:55:00.108Z,56.90
2023-03-19T19:57:28.485Z,74.70
2023-03-19T19:59:57.129Z,66.50
2023-03-19T20:02:29.378Z,61.80
2023-03-19T20:04:58.715Z,73.50
2023-03-19T20:07:27.418Z,65.90
2023-03-19T20:09:56.306Z,66.30
2023-03-19T20:12:28.265Z,59.60
2023-03-19T20:14:57.124Z,73.50
2023-03-19T20:17:25.715Z,82.20
2023-03-19T20:19:55.941Z,64.30
2023-03-19T20:22:24.310Z,63.20
2023-03-19T20:24:53.193Z,69.20
2023-03-19T20:27:23.621Z,66.00
2023-03-19T20:29:53.922Z,65.90
2023-03-19T20:32:36.142Z,83.00
2023-03-19T20:35:14.811Z,62.90
2023-03-19T20:37:43.108Z,65.50
2023-03-19T20:40:13.006Z,70.90
2023-03-19T20:42:41.858Z,72.80
2023-03-19T20:45:15.524Z,72.20
2023-03-19T20:47:44.743Z,69.00
2023-03-19T20:50:17.657Z,70.60
2023-03-19T20:52:49.482Z,76.60
2023-03-19T20:55:19.912Z,65.40
2023-03-19T20:57:49.532Z,65.40
2023-03-19T21:00:23.887Z,69.50
2023-03-19T21:02:53.085Z,67.60
2023-03-19T21:05:36.796Z,67.80
2023-03-19T21:08:16.618Z,77.30
2023-03-19T21:10:45.793Z,80.40
2023-03-19T21:13:17.112Z,80.80
2023-03-19T21:15:47.235Z,72.00
2023-03-19T21:18:17.202Z,79.70
2023-03-19T21:20:48.193Z,79.80
2023-03-19T21:23:37.382Z,71.70
2023-03-19T21:26:16.847Z,82.60
2023-03-19T21:28:46.042Z,78.30
2023-03-19T21:31:18.158Z,77.70
2023-03-19T21:33:49.246Z,66.20
2023-03-19T21:36:18.065Z,66.00
2023-03-19T21:38:46.735Z,72.10
2023-03-19T21:41:37.423Z,80.30
2023-03-19T21:44:07.682Z,75.00
2023-03-19T21:49:07.738Z,71.80
2023-03-19T21:51:38.217Z,72.30
2023-03-19T21:54:06.695Z,78.60
2023-03-19T21:56:40.396Z,78.60
2023-03-19T21:59:38.873Z,83.60
2023-03-19T22:02:23.833Z,73.90
2023-03-19T22:04:52.426Z,84.60
2023-03-19T22:07:20.909Z,96.70
2023-03-19T22:09:50.095Z,80.90
2023-03-19T22:12:27.808Z,89.00
2023-03-19T22:14:56.500Z,79.40
2023-03-19T22:19:55.182Z,83.40
2023-03-19T22:22:23.884Z,75.60
2023-03-19T22:24:56.035Z,77.10
2023-03-19T22:29:52.601Z,84.20
2023-03-19T22:32:21.172Z,93.40
2023-03-19T22:34:49.624Z,77.60
2023-03-19T22:37:29.603Z,83.40
2023-03-19T22:39:57.879Z,81.90
2023-03-19T22:49:55.697Z,84.70
2023-03-19T22:52:24.049Z,79.40
2023-03-19T22:54:54.095Z,71.50
2023-03-19T22:57:22.756Z,77.90
2023-03-19T22:59:53.042Z,79.10
2023-03-19T23:02:24.507Z,76.70
2023-03-19T23:04:53.230Z,88.40
2023-03-19T23:07:24.829Z,89.70
2023-03-19T23:09:57.074Z,78.60
2023-03-19T23:12:33.892Z,86.30
2023-03-19T23:15:02.590Z,77.60
2023-03-19T23:17:31.536Z,79.20
2023-03-19T23:20:00.189Z,80.60
2023-03-19T23:22:28.931Z,82.60
2023-03-19T23:24:58.293Z,80.60
2023-03-19T23:27:26.991Z,93.20
2023-03-19T23:29:56.562Z,79.80
2023-03-19T23:32:29.064Z,84.70
2023-03-19T23:35:01.429Z,81.60
2023-03-19T23:37:30.249Z,85.90
2023-03-19T23:40:01.984Z,86.80
2023-03-19T23:42:31.815Z,85.10
2023-03-19T23:45:05.138Z,80.80
2023-03-19T23:47:33.961Z,88.70
2023-03-19T23:50:02.433Z,85.40
2023-03-19T23:52:34.027Z,91.30
2023-03-19T23:55:03.186Z,87.50
2023-03-19T23:57:31.560Z,86.50
